Time;durP1;ratioP1;P1;durP2;ratioP2;P2;SDS_P1;SDS_P2;PMS_P1;PMS_P2;Temp;Humidity;BMP_temperature;BMP_pressure;BME280_temperature;BME280_humidity;BME280_pressure;Samples;Min_cycle;Max_cycle;Signal;HPM_P1;HPM_P2
2022/07/22 00:05:32;;;;;;;;;;;17.90;99.90;;;;;;5019469;28;19986;-75
2022/07/22 00:07:59;;;;;;;;;;;17.80;99.90;;;;;;5033104;28;20425;-75
2022/07/22 00:10:26;;;;;;;;;;;17.90;99.90;;;;;;5047535;28;20353;-75
2022/07/22 00:12:52;;;;;;;;;;;17.80;99.90;;;;;;5037671;28;20025;-75
2022/07/22 00:15:19;;;;;;;;;;;17.80;99.90;;;;;;5047088;28;19947;-75
2022/07/22 00:17:46;;;;;;;;;;;17.80;99.90;;;;;;5038952;28;19970;-75
2022/07/22 00:20:12;;;;;;;;;;;17.80;99.90;;;;;;5032603;28;20313;-75
2022/07/22 00:22:40;;;;;;;;;;;19.40;99.90;;;;;;5038503;28;19990;-75
2022/07/22 00:25:08;;;;;;;;;;;17.80;99.90;;;;;;5036826;28;19952;-74
2022/07/22 00:27:34;;;;;;;;;;;17.80;99.90;;;;;;5040572;28;20003;-75
2022/07/22 00:30:01;;;;;;;;;;;17.80;99.90;;;;;;5041110;28;19932;-75
2022/07/22 00:32:28;;;;;;;;;;;17.90;99.90;;;;;;5039165;28;19925;-75
2022/07/22 00:34:55;;;;;;;;;;;17.80;99.90;;;;;;5042454;28;20248;-75
2022/07/22 00:37:22;;;;;;;;;;;17.80;99.90;;;;;;5039995;28;20359;-74
2022/07/22 00:39:50;;;;;;;;;;;17.80;99.90;;;;;;5044862;28;20369;-75
2022/07/22 00:42:17;;;;;;;;;;;17.90;99.90;;;;;;5037614;28;20019;-74
2022/07/22 00:44:44;;;;;;;;;;;17.70;99.90;;;;;;5040459;28;19929;-75
2022/07/22 00:47:10;;;;;;;;;;;17.80;99.90;;;;;;5050194;28;19925;-74
2022/07/22 00:49:37;;;;;;;;;;;17.80;99.90;;;;;;5041627;28;20027;-75
2022/07/22 00:52:05;;;;;;;;;;;17.80;99.90;;;;;;5040384;28;20174;-75
2022/07/22 00:54:32;;;;;;;;;;;17.80;99.90;;;;;;5040101;28;19925;-75
2022/07/22 00:57:00;;;;;;;;;;;17.80;99.90;;;;;;5032839;28;19928;-75
2022/07/22 00:59:26;;;;;;;;;;;18.10;99.90;;;;;;5042075;28;19925;-74
2022/07/22 01:01:53;;;;;;;;;;;17.70;99.90;;;;;;5033921;28;19925;-75
2022/07/22 01:04:20;;;;;;;;;;;19.50;99.90;;;;;;5028915;28;19936;-75
2022/07/22 01:06:47;;;;;;;;;;;19.50;99.90;;;;;;5038942;28;19978;-74
2022/07/22 01:09:14;;;;;;;;;;;17.60;99.90;;;;;;5041364;28;19952;-74
2022/07/22 01:11:41;;;;;;;;;;;17.60;99.90;;;;;;5036375;28;19994;-75
2022/07/22 01:14:09;;;;;;;;;;;17.60;99.90;;;;;;5037035;28;19921;-75
2022/07/22 01:16:36;;;;;;;;;;;17.60;99.90;;;;;;5033524;28;19921;-74
2022/07/22 01:19:03;;;;;;;;;;;18.50;99.90;;;;;;5030057;28;20294;-76
2022/07/22 01:21:31;;;;;;;;;;;17.50;99.90;;;;;;5040160;28;20399;-75
2022/07/22 01:23:58;;;;;;;;;;;17.50;99.90;;;;;;5035708;28;20310;-75
2022/07/22 01:26:25;;;;;;;;;;;17.60;99.90;;;;;;5042119;28;19924;-75
2022/07/22 01:28:52;;;;;;;;;;;17.50;99.90;;;;;;5039902;28;19928;-75
2022/07/22 01:31:18;;;;;;;;;;;18.90;99.90;;;;;;5035487;28;20273;-75
2022/07/22 01:33:45;;;;;;;;;;;17.60;99.90;;;;;;5024104;28;19964;-73
2022/07/22 01:36:12;;;;;;;;;;;17.60;99.90;;;;;;5041576;28;19920;-74
2022/07/22 01:38:41;;;;;;;;;;;17.50;99.90;;;;;;5040800;28;19931;-74
2022/07/22 01:41:07;;;;;;;;;;;17.50;99.90;;;;;;5035314;28;20429;-74
2022/07/22 01:43:34;;;;;;;;;;;17.50;99.90;;;;;;5033906;28;19925;-74
2022/07/22 01:46:01;;;;;;;;;;;17.40;99.90;;;;;;5032894;28;19929;-74
2022/07/22 01:48:27;;;;;;;;;;;17.40;99.90;;;;;;5030344;28;20298;-74
2022/07/22 01:50:55;;;;;;;;;;;17.30;99.90;;;;;;5035749;28;20014;-74
2022/07/22 01:53:22;;;;;;;;;;;17.30;99.90;;;;;;5031209;28;19922;-74
2022/07/22 01:55:50;;;;;;;;;;;17.30;99.90;;;;;;5041185;28;19925;-74
2022/07/22 01:58:19;;;;;;;;;;;17.20;99.90;;;;;;5036938;28;19925;-74
2022/07/22 02:00:47;;;;;;;;;;;17.20;99.90;;;;;;5027963;28;19924;-74
2022/07/22 02:03:13;;;;;;;;;;;17.20;99.90;;;;;;5034528;28;20006;-74
2022/07/22 02:05:40;;;;;;;;;;;17.20;99.90;;;;;;5040263;28;19924;-75
2022/07/22 02:08:17;;;;;;;;;;;17.10;99.90;;;;;;5033798;28;19933;-75
2022/07/22 02:11:08;;;;;;;;;;;17.50;99.90;;;;;;5041145;28;20433;-75
2022/07/22 02:13:42;;;;;;;;;;;17.10;99.90;;;;;;5034272;28;20039;-75
2022/07/22 02:16:09;;;;;;;;;;;17.10;99.90;;;;;;5040792;28;19932;-75
2022/07/22 02:18:38;;;;;;;;;;;17.10;99.90;;;;;;5037416;28;19925;-75
2022/07/22 02:21:05;;;;;;;;;;;17.10;99.90;;;;;;5039236;28;19936;-75
2022/07/22 02:23:31;;;;;;;;;;;17.10;99.90;;;;;;5036904;28;19936;-75
2022/07/22 02:25:58;;;;;;;;;;;17.10;99.90;;;;;;5041852;28;20349;-75
2022/07/22 02:28:26;;;;;;;;;;;17.00;99.90;;;;;;5037277;28;19925;-75
2022/07/22 02:30:53;;;;;;;;;;;17.00;99.90;;;;;;5031727;28;19920;-75
2022/07/22 02:33:20;;;;;;;;;;;17.00;99.90;;;;;;5037188;28;19924;-75
2022/07/22 02:35:47;;;;;;;;;;;17.00;99.90;;;;;;5037250;28;19921;-75
2022/07/22 02:38:14;;;;;;;;;;;17.00;99.90;;;;;;5035177;28;19924;-74
2022/07/22 02:40:40;;;;;;;;;;;16.90;99.90;;;;;;5039153;28;19925;-75
2022/07/22 02:43:07;;;;;;;;;;;16.90;99.90;;;;;;5037050;28;20298;-74
2022/07/22 02:45:36;;;;;;;;;;;16.90;99.90;;;;;;5038451;28;20027;-75
2022/07/22 02:48:02;;;;;;;;;;;16.80;99.90;;;;;;5035343;28;19928;-75
2022/07/22 02:50:32;;;;;;;;;;;16.80;99.90;;;;;;5041299;28;19924;-75
2022/07/22 02:52:59;;;;;;;;;;;16.80;99.90;;;;;;5039294;28;20023;-75
2022/07/22 02:55:29;;;;;;;;;;;17.60;99.90;;;;;;5033128;28;19925;-75
2022/07/22 02:57:57;;;;;;;;;;;16.90;99.90;;;;;;5036404;28;19932;-75
2022/07/22 03:00:24;;;;;;;;;;;16.90;99.90;;;;;;5031460;28;19937;-75
2022/07/22 03:02:53;;;;;;;;;;;16.90;99.90;;;;;;5032444;28;19921;-75
2022/07/22 03:05:20;;;;;;;;;;;16.90;99.90;;;;;;5032879;28;19929;-75
2022/07/22 03:07:52;;;;;;;;;;;16.90;99.90;;;;;;5039987;28;19970;-75
2022/07/22 03:10:18;;;;;;;;;;;16.90;99.90;;;;;;5036139;28;19925;-78
2022/07/22 03:12:45;;;;;;;;;;;16.90;99.90;;;;;;5042725;28;19924;-78
2022/07/22 03:15:12;;;;;;;;;;;16.90;99.90;;;;;;5036411;28;19924;-77
2022/07/22 03:17:39;;;;;;;;;;;16.90;99.90;;;;;;5037218;28;20294;-76
2022/07/22 03:20:10;;;;;;;;;;;16.90;99.90;;;;;;5029637;28;20294;-76
2022/07/22 03:22:37;;;;;;;;;;;16.90;99.90;;;;;;5042724;28;19947;-77
2022/07/22 03:25:05;;;;;;;;;;;16.80;99.90;;;;;;5030202;28;19943;-77
2022/07/22 03:27:32;;;;;;;;;;;16.80;99.90;;;;;;5044438;28;19938;-77
2022/07/22 03:29:59;;;;;;;;;;;16.80;99.90;;;;;;5031497;28;20170;-77
2022/07/22 03:32:25;;;;;;;;;;;16.70;99.90;;;;;;5040483;28;19925;-80
2022/07/22 03:34:53;;;;;;;;;;;16.80;99.90;;;;;;5036348;28;19931;-79
2022/07/22 03:37:21;;;;;;;;;;;16.70;99.90;;;;;;5045571;28;19925;-79
2022/07/22 03:39:48;;;;;;;;;;;16.70;99.90;;;;;;5032995;28;19921;-79
2022/07/22 03:42:15;;;;;;;;;;;16.70;99.90;;;;;;5042657;28;19931;-79
2022/07/22 03:44:47;;;;;;;;;;;16.80;99.90;;;;;;5038188;28;20405;-80
2022/07/22 03:47:18;;;;;;;;;;;16.80;99.90;;;;;;5043201;28;20397;-82
2022/07/22 03:49:45;;;;;;;;;;;16.80;99.90;;;;;;5041762;28;19928;-78
2022/07/22 03:52:13;;;;;;;;;;;16.80;99.90;;;;;;5049322;28;19925;-78
2022/07/22 03:54:42;;;;;;;;;;;16.80;99.90;;;;;;5036926;28;19921;-77
2022/07/22 03:57:09;;;;;;;;;;;16.80;99.90;;;;;;5044091;28;19951;-79
2022/07/22 03:59:36;;;;;;;;;;;16.80;99.90;;;;;;5035233;28;19933;-78
2022/07/22 04:02:04;;;;;;;;;;;16.80;99.90;;;;;;5056165;28;19987;-77
2022/07/22 04:04:31;;;;;;;;;;;16.80;99.90;;;;;;5031181;28;19936;-77
2022/07/22 04:06:59;;;;;;;;;;;16.80;99.90;;;;;;5031666;28;20340;-77
2022/07/22 04:09:32;;;;;;;;;;;16.80;99.90;;;;;;5042793;28;19935;-79
2022/07/22 04:12:00;;;;;;;;;;;16.80;99.90;;;;;;5038684;28;19921;-77
2022/07/22 04:14:28;;;;;;;;;;;16.80;99.90;;;;;;5040851;28;19939;-80
2022/07/22 04:16:57;;;;;;;;;;;16.40;99.90;;;;;;5039450;28;19975;-77
2022/07/22 04:19:26;;;;;;;;;;;16.80;99.90;;;;;;5043997;28;20010;-80
2022/07/22 04:21:55;;;;;;;;;;;16.80;99.90;;;;;;5047720;28;19920;-77
2022/07/22 04:24:25;;;;;;;;;;;16.80;99.90;;;;;;5037483;28;20016;-77
2022/07/22 04:26:53;;;;;;;;;;;16.80;99.90;;;;;;5020041;28;19929;-80
2022/07/22 04:29:21;;;;;;;;;;;16.80;99.90;;;;;;5020795;28;19935;-78
2022/07/22 04:31:48;;;;;;;;;;;16.80;99.90;;;;;;5039778;28;19932;-80
2022/07/22 04:34:18;;;;;;;;;;;16.80;99.90;;;;;;5041133;28;20390;-77
2022/07/22 04:36:44;;;;;;;;;;;16.80;99.90;;;;;;5041928;28;19955;-80
2022/07/22 04:39:11;;;;;;;;;;;16.90;99.90;;;;;;5047190;28;20357;-77
2022/07/22 04:41:44;;;;;;;;;;;16.90;99.90;;;;;;5041099;28;19982;-78
2022/07/22 04:44:14;;;;;;;;;;;16.90;99.90;;;;;;5050140;28;19951;-80
2022/07/22 04:46:43;;;;;;;;;;;16.90;99.90;;;;;;5032742;28;19972;-77
2022/07/22 04:49:10;;;;;;;;;;;16.90;99.90;;;;;;5048758;28;19986;-77
2022/07/22 04:51:37;;;;;;;;;;;17.00;99.90;;;;;;5038588;28;19924;-81
2022/07/22 04:54:06;;;;;;;;;;;17.20;99.90;;;;;;5044357;28;19925;-78
2022/07/22 04:56:36;;;;;;;;;;;17.00;99.90;;;;;;5045582;28;20305;-76
2022/07/22 04:59:03;;;;;;;;;;;17.10;99.90;;;;;;5057750;28;20016;-78
2022/07/22 05:01:33;;;;;;;;;;;17.10;99.90;;;;;;5026922;28;20327;-77
2022/07/22 05:04:04;;;;;;;;;;;17.00;99.90;;;;;;5031575;28;19979;-78
2022/07/22 05:06:31;;;;;;;;;;;17.10;99.90;;;;;;5035729;28;19936;-77
2022/07/22 05:08:58;;;;;;;;;;;17.20;99.90;;;;;;5027973;28;20308;-77
2022/07/22 05:11:27;;;;;;;;;;;17.20;99.90;;;;;;5029783;28;19971;-77
2022/07/22 05:13:54;;;;;;;;;;;17.20;99.90;;;;;;5025532;28;19953;-77
2022/07/22 05:16:21;;;;;;;;;;;17.30;99.90;;;;;;5037567;28;19925;-77
2022/07/22 05:18:49;;;;;;;;;;;17.40;99.90;;;;;;5038515;28;20397;-77
2022/07/22 05:21:18;;;;;;;;;;;17.40;99.90;;;;;;5027100;28;20441;-79
2022/07/22 05:23:45;;;;;;;;;;;17.40;99.90;;;;;;5023983;28;19925;-78
2022/07/22 05:26:14;;;;;;;;;;;17.50;99.90;;;;;;5022130;28;19925;-78
2022/07/22 05:28:41;;;;;;;;;;;17.50;99.90;;;;;;5037578;28;20023;-76
2022/07/22 05:31:08;;;;;;;;;;;17.50;99.90;;;;;;5047982;28;19975;-76
2022/07/22 05:33:37;;;;;;;;;;;17.50;99.90;;;;;;5030822;28;19925;-76
2022/07/22 05:36:06;;;;;;;;;;;17.50;99.90;;;;;;5065487;22;20361;-76
2022/07/22 05:38:39;;;;;;;;;;;17.50;99.90;;;;;;5053682;28;20046;-76
2022/07/22 05:41:06;;;;;;;;;;;17.60;99.90;;;;;;5053016;28;20377;-76
2022/07/22 05:43:34;;;;;;;;;;;17.60;99.90;;;;;;5054452;28;20055;-76
2022/07/22 05:46:02;;;;;;;;;;;19.10;99.90;;;;;;5046037;28;19943;-74
2022/07/22 05:48:29;;;;;;;;;;;17.70;99.90;;;;;;5054955;28;19927;-76
2022/07/22 05:50:56;;;;;;;;;;;17.80;99.90;;;;;;5052920;28;19947;-75
2022/07/22 05:53:22;;;;;;;;;;;17.80;99.90;;;;;;5047555;28;19920;-76
2022/07/22 05:55:50;;;;;;;;;;;19.60;99.90;;;;;;5039920;28;19936;-76
2022/07/22 05:58:17;;;;;;;;;;;17.90;99.90;;;;;;5039021;28;19931;-76
2022/07/22 06:00:44;;;;;;;;;;;18.00;99.90;;;;;;5061909;28;19931;-75
2022/07/22 06:03:11;;;;;;;;;;;18.00;99.90;;;;;;5035413;28;19928;-76
2022/07/22 06:05:37;;;;;;;;;;;18.10;99.90;;;;;;5052999;28;19924;-76
2022/07/22 06:08:07;;;;;;;;;;;18.10;99.90;;;;;;5033759;28;19963;-74
2022/07/22 06:10:47;;;;;;;;;;;18.30;99.90;;;;;;5040055;28;20274;-75
2022/07/22 06:13:15;;;;;;;;;;;18.20;99.90;;;;;;5039213;28;19924;-77
2022/07/22 06:15:42;;;;;;;;;;;18.30;99.90;;;;;;5053277;28;19944;-75
2022/07/22 06:18:10;;;;;;;;;;;20.30;99.90;;;;;;5031786;28;19932;-75
2022/07/22 06:20:37;;;;;;;;;;;18.40;99.90;;;;;;5045925;28;20188;-75
2022/07/22 06:23:04;;;;;;;;;;;18.50;99.90;;;;;;5060950;28;20003;-77
2022/07/22 06:25:32;;;;;;;;;;;18.50;99.90;;;;;;5043888;28;19924;-76
2022/07/22 06:27:59;;;;;;;;;;;18.60;99.90;;;;;;5035849;28;19929;-77
2022/07/22 06:30:27;;;;;;;;;;;18.70;99.90;;;;;;5045192;28;19992;-75
2022/07/22 06:32:54;;;;;;;;;;;18.70;99.90;;;;;;5034297;28;19924;-75
2022/07/22 06:35:21;;;;;;;;;;;18.70;99.90;;;;;;5041319;28;19971;-75
2022/07/22 06:37:47;;;;;;;;;;;18.80;99.90;;;;;;5049716;28;20377;-75
2022/07/22 06:40:14;;;;;;;;;;;18.80;99.90;;;;;;5036669;28;20429;-77
2022/07/22 06:42:54;;;;;;;;;;;18.80;99.90;;;;;;5043093;28;19932;-76
2022/07/22 06:45:20;;;;;;;;;;;19.00;99.90;;;;;;5050111;28;19925;-75
2022/07/22 06:48:14;;;;;;;;;;;19.00;99.90;;;;;;5054795;28;19927;-75
2022/07/22 06:50:41;;;;;;;;;;;19.10;99.90;;;;;;5030830;28;20294;-76
2022/07/22 06:53:13;;;;;;;;;;;19.20;99.90;;;;;;5047675;28;19928;-76
2022/07/22 06:55:41;;;;;;;;;;;21.20;99.90;;;;;;5055104;28;20409;-75
2022/07/22 06:58:10;;;;;;;;;;;19.30;99.90;;;;;;5036259;28;19924;-74
2022/07/22 07:00:37;;;;;;;;;;;19.30;99.90;;;;;;5048957;28;19924;-75
2022/07/22 07:03:21;;;;;;;;;;;19.70;99.90;;;;;;5036258;28;19924;-75
2022/07/22 07:05:49;;;;;;;;;;;19.30;99.90;;;;;;5055070;28;19923;-75
2022/07/22 07:08:17;;;;;;;;;;;19.40;99.90;;;;;;5047775;28;19925;-74
2022/07/22 07:10:44;;;;;;;;;;;19.40;99.90;;;;;;5031677;28;19920;-75
2022/07/22 07:13:14;;;;;;;;;;;19.50;99.90;;;;;;5037996;28;19921;-75
2022/07/22 07:15:45;;;;;;;;;;;19.60;99.90;;;;;;5047859;28;19948;-75
2022/07/22 07:18:11;;;;;;;;;;;19.70;99.90;;;;;;5042582;28;19996;-77
2022/07/22 07:20:40;;;;;;;;;;;19.80;99.90;;;;;;5039590;28;19960;-74
2022/07/22 07:23:09;;;;;;;;;;;20.50;99.90;;;;;;5033574;28;19954;-75
2022/07/22 07:25:41;;;;;;;;;;;19.90;99.90;;;;;;5037616;28;19921;-75
2022/07/22 07:28:08;;;;;;;;;;;20.00;99.90;;;;;;5049910;28;19931;-75
2022/07/22 07:31:04;;;;;;;;;;;20.00;99.90;;;;;;5034291;28;19924;-75
2022/07/22 07:33:31;;;;;;;;;;;20.10;99.90;;;;;;5035691;28;20397;-76
2022/07/22 07:36:00;;;;;;;;;;;20.20;99.90;;;;;;5038432;28;19929;-75
2022/07/22 07:38:47;;;;;;;;;;;20.20;99.90;;;;;;5049470;28;20078;-75
2022/07/22 07:41:16;;;;;;;;;;;20.30;99.90;;;;;;5035329;28;20377;-75
2022/07/22 07:43:44;;;;;;;;;;;20.40;99.90;;;;;;5024401;28;19948;-75
2022/07/22 07:46:12;;;;;;;;;;;20.50;99.90;;;;;;5056859;28;19924;-75
2022/07/22 07:48:39;;;;;;;;;;;20.50;99.90;;;;;;5035491;28;19983;-76
2022/07/22 07:51:07;;;;;;;;;;;20.50;99.90;;;;;;5027328;28;19931;-73
2022/07/22 07:53:34;;;;;;;;;;;20.60;99.90;;;;;;5040863;28;19938;-72
2022/07/22 07:56:01;;;;;;;;;;;20.70;99.90;;;;;;5053607;28;20027;-72
2022/07/22 07:58:28;;;;;;;;;;;20.70;99.90;;;;;;5047831;28;19971;-71
2022/07/22 08:00:55;;;;;;;;;;;20.70;99.90;;;;;;5037604;28;19936;-72
2022/07/22 08:03:22;;;;;;;;;;;20.80;99.90;;;;;;5026408;28;19925;-72
2022/07/22 08:05:49;;;;;;;;;;;20.80;99.90;;;;;;5036820;28;19928;-70
2022/07/22 08:08:21;;;;;;;;;;;20.80;99.90;;;;;;5036932;28;19951;-71
2022/07/22 08:10:50;;;;;;;;;;;20.70;99.90;;;;;;5031707;28;19929;-71
2022/07/22 08:13:35;;;;;;;;;;;20.70;99.90;;;;;;5040279;28;20355;-72
2022/07/22 08:16:20;;;;;;;;;;;20.70;99.90;;;;;;5593003;22;19913;-71
2022/07/22 08:18:47;;;;;;;;;;;20.70;99.90;;;;;;5077161;28;19924;-71
2022/07/22 08:21:15;;;;;;;;;;;20.80;99.90;;;;;;5075637;28;19924;-71
2022/07/22 08:23:52;;;;;;;;;;;20.90;99.90;;;;;;5059798;28;19928;-71
2022/07/22 08:26:19;;;;;;;;;;;21.00;99.90;;;;;;5070680;28;20300;-71
2022/07/22 08:28:45;;;;;;;;;;;21.10;99.90;;;;;;5076006;28;19924;-71
2022/07/22 08:31:12;;;;;;;;;;;21.10;99.90;;;;;;5056654;28;19938;-73
2022/07/22 08:33:39;;;;;;;;;;;21.10;99.90;;;;;;5050520;28;20029;-76
2022/07/22 08:36:06;;;;;;;;;;;21.10;99.90;;;;;;5053546;28;20396;-75
2022/07/22 08:38:34;;;;;;;;;;;21.10;99.90;;;;;;5055376;28;19920;-74
2022/07/22 08:41:03;;;;;;;;;;;21.20;99.90;;;;;;5050850;28;19936;-71
2022/07/22 08:43:31;;;;;;;;;;;21.30;99.90;;;;;;5041646;28;19935;-71
2022/07/22 08:45:58;;;;;;;;;;;21.30;99.90;;;;;;5060608;22;19935;-87
2022/07/22 08:48:25;;;;;;;;;;;21.30;99.90;;;;;;5086055;28;19942;-87
2022/07/22 08:51:03;;;;;;;;;;;21.30;99.90;;;;;;5068452;28;19920;-87
2022/07/22 08:53:33;;;;;;;;;;;21.40;99.90;;;;;;5074299;28;19930;-86
2022/07/22 08:56:12;;;;;;;;;;;21.40;99.90;;;;;;5074960;28;19942;-87
2022/07/22 08:58:39;;;;;;;;;;;21.40;99.90;;;;;;5069313;28;19924;-86
2022/07/22 09:01:07;;;;;;;;;;;21.40;99.90;;;;;;5071633;28;19920;-87
2022/07/22 09:03:34;;;;;;;;;;;21.40;99.90;;;;;;5057986;28;19931;-87
2022/07/22 09:06:02;;;;;;;;;;;21.30;99.90;;;;;;5060869;28;19921;-86
2022/07/22 09:08:29;;;;;;;;;;;21.30;99.90;;;;;;5069477;28;19967;-88
2022/07/22 09:11:00;;;;;;;;;;;21.30;99.90;;;;;;5074541;28;19928;-87
2022/07/22 09:14:00;;;;;;;;;;;21.30;99.90;;;;;;5094568;28;19991;-87
2022/07/22 09:16:47;;;;;;;;;;;21.30;99.90;;;;;;5101333;28;20403;-87
2022/07/22 09:19:32;;;;;;;;;;;21.50;99.90;;;;;;5075506;28;19927;-87
2022/07/22 09:22:30;;;;;;;;;;;21.60;99.90;;;;;;5093522;28;19927;-87
2022/07/22 09:25:18;;;;;;;;;;;21.80;99.90;;;;;;5069313;28;20015;-88
2022/07/22 09:28:19;;;;;;;;;;;22.00;99.90;;;;;;5052906;28;19920;-87
2022/07/22 09:31:06;;;;;;;;;;;22.20;99.90;;;;;;5096475;28;19930;-88
2022/07/22 09:33:41;;;;;;;;;;;22.80;99.90;;;;;;5079145;28;19935;-88
2022/07/22 09:36:27;;;;;;;;;;;22.80;99.90;;;;;;5076162;28;19924;-87
2022/07/22 09:38:55;;;;;;;;;;;23.10;99.90;;;;;;5075616;28;19993;-87
2022/07/22 09:41:22;;;;;;;;;;;23.20;99.90;;;;;;5076912;28;19970;-87
2022/07/22 09:43:50;;;;;;;;;;;23.50;99.90;;;;;;5076607;28;20391;-88
2022/07/22 09:46:33;;;;;;;;;;;23.60;99.90;;;;;;5076033;28;19923;-88
2022/07/22 09:49:30;;;;;;;;;;;23.70;99.90;;;;;;5094982;28;19977;-89
2022/07/22 09:52:17;;;;;;;;;;;23.90;99.90;;;;;;5093761;28;19920;-86
2022/07/22 09:55:06;;;;;;;;;;;24.10;99.90;;;;;;5075475;28;20348;-85
2022/07/22 09:57:33;;;;;;;;;;;24.20;99.90;;;;;;5084766;28;19974;-86
2022/07/22 10:00:01;;;;;;;;;;;24.40;99.90;;;;;;5067077;28;20027;-88
2022/07/22 10:02:55;;;;;;;;;;;24.50;99.90;;;;;;5060752;28;19928;-85
2022/07/22 10:05:24;;;;;;;;;;;24.40;99.90;;;;;;5082052;28;19921;-86
2022/07/22 10:07:52;;;;;;;;;;;24.50;99.90;;;;;;5082823;28;19924;-85
2022/07/22 10:10:19;;;;;;;;;;;24.60;99.90;;;;;;5077318;28;19924;-85
2022/07/22 10:12:48;;;;;;;;;;;24.90;99.90;;;;;;5098179;28;19920;-86
2022/07/22 10:15:15;;;;;;;;;;;24.90;99.90;;;;;;5073576;28;20311;-85
2022/07/22 10:17:50;;;;;;;;;;;23.20;99.90;;;;;;5081384;28;19931;-86
2022/07/22 10:20:19;;;;;;;;;;;25.10;99.90;;;;;;5085768;28;19927;-87
2022/07/22 10:22:53;;;;;;;;;;;25.20;99.90;;;;;;5076479;28;20045;-87
2022/07/22 10:25:23;;;;;;;;;;;25.50;99.90;;;;;;5078163;28;19942;-86
2022/07/22 10:27:51;;;;;;;;;;;25.50;99.90;;;;;;5078295;28;19924;-87
2022/07/22 10:30:19;;;;;;;;;;;25.70;99.90;;;;;;5077779;28;19927;-87
2022/07/22 10:32:46;;;;;;;;;;;25.70;99.90;;;;;;5077416;28;19919;-86
2022/07/22 10:35:26;;;;;;;;;;;25.60;99.90;;;;;;5077481;28;19973;-86
2022/07/22 10:37:58;;;;;;;;;;;25.60;99.90;;;;;;5077356;28;19944;-88
2022/07/22 10:40:26;;;;;;;;;;;25.80;99.90;;;;;;5076523;28;19931;-86
2022/07/22 10:43:11;;;;;;;;;;;25.90;99.90;;;;;;5077509;28;19955;-88
2022/07/22 10:45:45;;;;;;;;;;;25.90;99.90;;;;;;5075973;28;19958;-87
2022/07/22 10:48:19;;;;;;;;;;;25.90;99.90;;;;;;5076342;28;19919;-87
2022/07/22 10:50:54;;;;;;;;;;;25.90;99.90;;;;;;5073728;28;20369;-88
2022/07/22 10:53:25;;;;;;;;;;;25.80;99.90;;;;;;5075782;28;19920;-87
2022/07/22 10:55:59;;;;;;;;;;;25.90;99.90;;;;;;5078531;28;19932;-89
2022/07/22 10:58:46;;;;;;;;;;;25.80;99.90;;;;;;5067583;28;19920;-88
2022/07/22 11:01:29;;;;;;;;;;;25.80;99.90;;;;;;5084446;28;19920;-87
2022/07/22 11:04:07;;;;;;;;;;;26.10;99.90;;;;;;5079065;28;20359;-89
2022/07/22 11:06:37;;;;;;;;;;;26.10;99.90;;;;;;5071769;28;19939;-88
2022/07/22 11:09:08;;;;;;;;;;;26.30;99.90;;;;;;5069762;28;19920;-87
2022/07/22 11:11:37;;;;;;;;;;;26.50;99.90;;;;;;5086293;28;19923;-87
2022/07/22 11:14:11;;;;;;;;;;;26.50;99.90;;;;;;5065684;28;19927;-87
2022/07/22 11:16:38;;;;;;;;;;;26.40;99.90;;;;;;5078076;28;19920;-87
2022/07/22 11:19:05;;;;;;;;;;;26.20;99.90;;;;;;5060099;28;19920;-86
2022/07/22 11:21:32;;;;;;;;;;;26.00;99.90;;;;;;5059865;28;19928;-87
2022/07/22 11:24:03;;;;;;;;;;;25.70;99.90;;;;;;5079333;28;20289;-87
2022/07/22 11:26:36;;;;;;;;;;;25.70;99.90;;;;;;5060626;28;19935;-87
2022/07/22 11:29:03;;;;;;;;;;;25.60;99.90;;;;;;5067723;28;19927;-88
2022/07/22 11:31:30;;;;;;;;;;;25.70;99.90;;;;;;5064380;28;19924;-88
2022/07/22 11:34:05;;;;;;;;;;;25.70;99.90;;;;;;5074086;28;20272;-87
2022/07/22 11:36:32;;;;;;;;;;;25.90;99.90;;;;;;5058417;28;19928;-87
2022/07/22 11:39:00;;;;;;;;;;;25.90;99.90;;;;;;5075926;28;19927;-87
2022/07/22 11:41:29;;;;;;;;;;;25.80;99.90;;;;;;5060479;28;20410;-87
2022/07/22 11:43:56;;;;;;;;;;;25.50;99.90;;;;;;5064550;28;20055;-86
2022/07/22 11:46:25;;;;;;;;;;;25.50;99.90;;;;;;5069941;28;19920;-87
2022/07/22 11:48:52;;;;;;;;;;;25.60;99.90;;;;;;5081689;28;19974;-87
2022/07/22 11:51:20;;;;;;;;;;;25.70;99.90;;;;;;5069274;28;19931;-87
2022/07/22 11:53:46;;;;;;;;;;;25.60;99.90;;;;;;5069354;28;19924;-87
2022/07/22 11:56:15;;;;;;;;;;;25.60;99.90;;;;;;5070432;28;19924;-88
2022/07/22 11:58:43;;;;;;;;;;;25.60;99.90;;;;;;5074351;28;19930;-87
2022/07/22 12:01:11;;;;;;;;;;;25.70;99.90;;;;;;5096726;28;19935;-87
2022/07/22 12:03:40;;;;;;;;;;;25.90;99.90;;;;;;5095498;28;19928;-85
2022/07/22 12:06:08;;;;;;;;;;;25.90;99.90;;;;;;5089430;28;19928;-85
2022/07/22 12:08:36;;;;;;;;;;;26.10;99.90;;;;;;5100491;28;19924;-84
2022/07/22 12:11:03;;;;;;;;;;;26.30;99.90;;;;;;5080322;28;19916;-84
2022/07/22 12:13:30;;;;;;;;;;;;;;;;;;5101789;28;20745;-83
2022/07/22 12:15:59;;;;;;;;;;;26.90;99.90;;;;;;5095032;28;19950;-84
2022/07/22 12:18:26;;;;;;;;;;;27.20;99.90;;;;;;5078118;28;19981;-84
2022/07/22 12:20:54;;;;;;;;;;;27.50;99.90;;;;;;5069215;28;19931;-85
2022/07/22 12:23:21;;;;;;;;;;;27.80;99.90;;;;;;5071071;28;19935;-85
2022/07/22 12:25:52;;;;;;;;;;;27.80;99.90;;;;;;5071077;28;19920;-84
2022/07/22 12:28:18;;;;;;;;;;;27.60;99.90;;;;;;5066535;28;20316;-84
2022/07/22 12:30:50;;;;;;;;;;;27.40;99.90;;;;;;5085860;28;19924;-88
2022/07/22 12:33:19;;;;;;;;;;;26.80;99.90;;;;;;5074153;28;19920;-88
2022/07/22 12:35:58;;;;;;;;;;;26.80;99.90;;;;;;5082810;28;20187;-88
2022/07/22 12:38:25;;;;;;;;;;;26.70;99.90;;;;;;5088992;28;19931;-88
2022/07/22 12:40:52;;;;;;;;;;;28.00;99.90;;;;;;5065484;28;20471;-88
2022/07/22 12:43:25;;;;;;;;;;;27.00;99.90;;;;;;5068759;28;19934;-88
2022/07/22 12:45:51;;;;;;;;;;;27.00;99.90;;;;;;5068030;28;19962;-87
2022/07/22 12:48:20;;;;;;;;;;;27.10;99.90;;;;;;5061752;28;20561;-86
2022/07/22 12:50:55;;;;;;;;;;;26.70;99.90;;;;;;5077002;28;19943;-89
2022/07/22 12:53:23;;;;;;;;;;;26.70;99.90;;;;;;5064607;28;19928;-87
2022/07/22 12:55:52;;;;;;;;;;;26.90;99.90;;;;;;5047549;28;19935;-87
2022/07/22 12:58:20;;;;;;;;;;;27.10;99.90;;;;;;5049511;28;19981;-87
2022/07/22 13:00:50;;;;;;;;;;;27.20;99.90;;;;;;5071463;28;19920;-88
2022/07/22 13:03:19;;;;;;;;;;;27.60;99.90;;;;;;5061213;28;19927;-88
2022/07/22 13:05:50;;;;;;;;;;;27.60;99.90;;;;;;5077920;28;19924;-88
2022/07/22 13:08:18;;;;;;;;;;;27.40;99.90;;;;;;5064539;28;19924;-89
2022/07/22 13:10:45;;;;;;;;;;;27.00;99.90;;;;;;5063655;28;19924;-90
2022/07/22 13:13:12;;;;;;;;;;;27.00;99.90;;;;;;5062804;28;19928;-85
2022/07/22 13:15:39;;;;;;;;;;;27.00;99.90;;;;;;5050677;28;19996;-85
2022/07/22 13:18:06;;;;;;;;;;;26.90;99.90;;;;;;5052977;28;19985;-87
2022/07/22 13:20:33;;;;;;;;;;;26.90;99.90;;;;;;5043404;28;20734;-86
2022/07/22 13:23:01;;;;;;;;;;;26.90;99.90;;;;;;5058031;28;21327;-86
2022/07/22 13:25:28;;;;;;;;;;;27.30;99.90;;;;;;5079424;28;19931;-87
2022/07/22 13:27:55;;;;;;;;;;;27.50;99.90;;;;;;5080782;28;19924;-87
2022/07/22 13:30:21;;;;;;;;;;;27.40;99.90;;;;;;5075384;28;19947;-87
2022/07/22 13:32:48;;;;;;;;;;;27.30;99.90;;;;;;5059634;28;19928;-86
2022/07/22 13:35:15;;;;;;;;;;;27.00;99.90;;;;;;5057618;28;19924;-87
2022/07/22 13:37:42;;;;;;;;;;;26.90;99.90;;;;;;5081126;28;20323;-86
2022/07/22 13:40:10;;;;;;;;;;;26.60;99.90;;;;;;5071887;28;19932;-86
2022/07/22 13:42:37;;;;;;;;;;;26.60;99.90;;;;;;5080225;28;19931;-90
2022/07/22 13:45:05;;;;;;;;;;;26.50;99.90;;;;;;5068426;28;20339;-87
2022/07/22 13:47:31;;;;;;;;;;;26.50;99.90;;;;;;5064559;28;19975;-86
2022/07/22 13:49:58;;;;;;;;;;;26.60;99.90;;;;;;5073055;28;19928;-86
2022/07/22 13:52:25;;;;;;;;;;;26.60;99.90;;;;;;5049412;28;19920;-86
2022/07/22 13:54:51;;;;;;;;;;;26.90;99.90;;;;;;5063351;28;19915;-88
2022/07/22 13:57:20;;;;;;;;;;;27.10;99.90;;;;;;5070615;28;19928;-87
2022/07/22 13:59:47;;;;;;;;;;;27.30;99.90;;;;;;5089575;28;19928;-86
2022/07/22 14:02:14;;;;;;;;;;;27.70;99.90;;;;;;5072297;28;19929;-87
2022/07/22 14:04:41;;;;;;;;;;;27.90;99.90;;;;;;5064954;28;19928;-86
2022/07/22 14:07:08;;;;;;;;;;;28.00;99.90;;;;;;5079198;28;19924;-87
2022/07/22 14:09:34;;;;;;;;;;;27.80;99.90;;;;;;5073356;28;19924;-88
2022/07/22 14:12:01;;;;;;;;;;;27.80;99.90;;;;;;5047272;28;19928;-85
2022/07/22 14:14:29;;;;;;;;;;;27.70;99.90;;;;;;5067060;28;21007;-90
2022/07/22 14:16:56;;;;;;;;;;;27.50;99.90;;;;;;5075926;28;19931;-84
2022/07/22 14:19:23;;;;;;;;;;;27.50;99.90;;;;;;5058578;28;19920;-84
2022/07/22 14:21:49;;;;;;;;;;;27.20;99.90;;;;;;5080338;28;20510;-85
2022/07/22 14:24:16;;;;;;;;;;;27.10;99.90;;;;;;5068817;28;21404;-84
2022/07/22 14:26:43;;;;;;;;;;;27.10;99.90;;;;;;5071765;28;20285;-85
2022/07/22 14:29:10;;;;;;;;;;;26.90;99.90;;;;;;5074871;28;20391;-88
2022/07/22 14:31:38;;;;;;;;;;;26.70;99.90;;;;;;5071910;28;19945;-87
2022/07/22 14:34:04;;;;;;;;;;;26.50;99.90;;;;;;5073367;28;20039;-86
2022/07/22 14:36:31;;;;;;;;;;;26.40;99.90;;;;;;5082644;28;19928;-88